createdAt,value
2019-03-17T00:01:57.656Z,6.08
2019-03-17T00:04:31.634Z,6.15
2019-03-17T00:07:02.025Z,6.16
2019-03-17T00:09:33.998Z,6.19
2019-03-17T00:12:05.940Z,6.21
2019-03-17T00:14:37.899Z,6.23
2019-03-17T00:17:09.597Z,6.26
2019-03-17T00:19:41.481Z,6.22
2019-03-17T00:22:13.231Z,6.25
2019-03-17T00:24:45.066Z,6.32
2019-03-17T00:27:16.732Z,6.35
2019-03-17T00:29:48.455Z,6.35
2019-03-17T00:32:20.285Z,6.41
2019-03-17T00:34:52.045Z,6.38
2019-03-17T00:37:23.846Z,6.38
2019-03-17T00:39:55.709Z,6.39
2019-03-17T00:42:27.791Z,6.40
2019-03-17T00:44:59.912Z,6.40
2019-03-17T00:47:32.741Z,6.47
2019-03-17T00:50:04.868Z,6.48
2019-03-17T00:52:36.646Z,6.47
2019-03-17T00:55:08.427Z,6.49
2019-03-17T00:57:41.357Z,6.55
2019-03-17T01:00:14.409Z,6.58
2019-03-17T01:02:47.287Z,6.59
2019-03-17T01:05:20.092Z,6.52
2019-03-17T01:07:52.000Z,6.57
2019-03-17T01:10:24.195Z,6.59
2019-03-17T01:12:56.094Z,6.58
2019-03-17T01:15:27.818Z,6.64
2019-03-17T01:18:00.223Z,6.66
2019-03-17T01:20:31.835Z,6.70
2019-03-17T01:23:03.785Z,6.72
2019-03-17T01:25:37.195Z,6.71
2019-03-17T01:28:09.297Z,6.68
2019-03-17T01:30:41.645Z,6.79
2019-03-17T01:33:13.678Z,6.88
2019-03-17T01:35:45.760Z,6.97
2019-03-17T01:38:17.431Z,6.97
2019-03-17T01:40:49.748Z,7.03
2019-03-17T01:43:21.703Z,7.02
2019-03-17T01:45:53.413Z,7.04
2019-03-17T01:48:25.239Z,7.05
2019-03-17T01:50:57.052Z,7.07
2019-03-17T01:53:28.780Z,7.11
2019-03-17T01:56:00.523Z,7.16
2019-03-17T01:58:34.767Z,7.14
2019-03-17T02:01:06.573Z,7.21
2019-03-17T02:03:38.361Z,7.24
2019-03-17T02:06:10.734Z,7.25
2019-03-17T02:08:42.693Z,7.32
2019-03-17T02:11:14.548Z,7.37
2019-03-17T02:13:46.318Z,7.37
2019-03-17T02:16:18.736Z,7.37
2019-03-17T02:18:50.509Z,7.29
2019-03-17T02:21:22.189Z,7.30
2019-03-17T02:23:54.325Z,7.31
2019-03-17T02:26:26.848Z,7.34
2019-03-17T02:29:00.051Z,7.31
2019-03-17T02:31:31.890Z,7.34
2019-03-17T02:34:03.701Z,7.32
2019-03-17T02:36:35.522Z,7.32
2019-03-17T02:39:07.808Z,7.32
2019-03-17T02:41:39.684Z,7.33
2019-03-17T02:44:11.471Z,7.32
2019-03-17T02:46:43.404Z,7.42
2019-03-17T02:49:15.307Z,7.46
2019-03-17T02:51:47.141Z,7.50
2019-03-17T02:54:19.547Z,7.54
2019-03-17T02:56:51.424Z,7.59
2019-03-17T02:59:24.583Z,7.62
2019-03-17T03:01:58.446Z,7.63
2019-03-17T03:04:30.175Z,7.68
2019-03-17T03:07:03.620Z,7.65
2019-03-17T03:09:35.420Z,7.70
2019-03-17T03:12:07.230Z,7.74
2019-03-17T03:14:39.011Z,7.78
2019-03-17T03:17:11.333Z,7.81
2019-03-17T03:19:43.172Z,7.82
2019-03-17T03:22:15.425Z,7.85
2019-03-17T03:24:47.538Z,7.86
2019-03-17T03:27:19.320Z,7.89
2019-03-17T03:29:51.411Z,7.91
2019-03-17T03:32:23.290Z,7.93
2019-03-17T03:34:55.669Z,7.95
2019-03-17T03:37:29.044Z,7.96
2019-03-17T03:40:00.803Z,7.92
2019-03-17T03:42:32.787Z,7.97
2019-03-17T03:45:05.452Z,7.95
2019-03-17T03:47:37.565Z,7.97
2019-03-17T03:50:09.443Z,7.98
2019-03-17T03:52:43.601Z,8.00
2019-03-17T03:55:16.526Z,7.99
2019-03-17T03:57:48.481Z,8.01
2019-03-17T04:00:20.342Z,8.02
2019-03-17T04:02:52.154Z,8.01
2019-03-17T04:05:24.059Z,8.03
2019-03-17T04:07:55.722Z,8.03
2019-03-17T04:10:27.670Z,8.03
2019-03-17T04:12:59.473Z,8.03
2019-03-17T04:15:31.253Z,8.01
2019-03-17T04:18:03.625Z,8.00
2019-03-17T04:20:35.512Z,8.00
2019-03-17T04:23:07.451Z,8.00
2019-03-17T04:25:39.172Z,8.00
2019-03-17T04:28:10.993Z,7.99
2019-03-17T04:30:43.123Z,7.96
2019-03-17T04:33:15.005Z,7.94
2019-03-17T04:35:46.906Z,7.95
2019-03-17T04:38:19.250Z,7.90
2019-03-17T04:40:51.050Z,7.90
2019-03-17T04:43:22.864Z,7.83
2019-03-17T04:45:54.867Z,7.80
2019-03-17T04:48:26.773Z,7.83
2019-03-17T04:50:58.847Z,7.80
2019-03-17T04:53:30.614Z,7.83
2019-03-17T04:56:02.566Z,7.78
2019-03-17T04:58:34.292Z,7.84
2019-03-17T05:01:05.960Z,7.84
2019-03-17T05:03:37.937Z,7.84
2019-03-17T05:06:10.915Z,7.77
2019-03-17T05:08:42.640Z,7.71
2019-03-17T05:11:14.779Z,7.57
2019-03-17T05:13:46.634Z,7.56
2019-03-17T05:16:18.380Z,7.52
2019-03-17T05:18:50.402Z,7.55
2019-03-17T05:21:22.841Z,7.55
2019-03-17T05:23:54.679Z,7.56
2019-03-17T05:26:26.442Z,7.57
2019-03-17T05:28:58.467Z,7.58
2019-03-17T05:31:30.261Z,7.63
2019-03-17T05:34:01.860Z,7.66
2019-03-17T05:36:33.740Z,7.70
2019-03-17T05:39:07.920Z,7.75
2019-03-17T05:41:39.712Z,7.78
2019-03-17T05:44:11.507Z,7.80
2019-03-17T05:46:44.137Z,7.84
2019-03-17T05:49:16.797Z,7.87
2019-03-17T05:51:48.582Z,7.86
2019-03-17T05:54:20.392Z,7.81
2019-03-17T05:56:52.038Z,7.81
2019-03-17T05:59:23.676Z,7.83
2019-03-17T06:01:55.708Z,7.86
2019-03-17T06:04:27.492Z,7.83
2019-03-17T06:06:59.260Z,7.84
2019-03-17T06:09:31.062Z,7.91
2019-03-17T06:12:05.448Z,7.94
2019-03-17T06:14:38.303Z,8.02
2019-03-17T06:17:09.972Z,8.06
2019-03-17T06:19:41.555Z,8.16
2019-03-17T06:22:13.477Z,8.25
2019-03-17T06:24:45.537Z,8.33
2019-03-17T06:27:17.332Z,8.42
2019-03-17T06:29:49.521Z,8.47
2019-03-17T06:32:22.375Z,8.60
2019-03-17T06:34:54.486Z,8.63
2019-03-17T06:37:31.182Z,8.70
2019-03-17T06:40:00.772Z,8.82
2019-03-17T06:42:32.591Z,8.89
2019-03-17T06:45:04.635Z,8.99
2019-03-17T06:47:36.271Z,9.06
2019-03-17T06:50:10.288Z,9.14
2019-03-17T06:52:42.291Z,9.22
2019-03-17T06:55:14.726Z,9.26
2019-03-17T06:57:46.695Z,9.40
2019-03-17T07:00:18.650Z,9.41
2019-03-17T07:02:51.675Z,9.55
2019-03-17T07:05:23.781Z,9.65
2019-03-17T07:07:55.411Z,9.70
2019-03-17T07:10:27.017Z,9.73
2019-03-17T07:12:59.128Z,9.87
2019-03-17T07:15:31.770Z,9.99
2019-03-17T07:18:03.818Z,10.08
2019-03-17T07:20:35.794Z,10.09
2019-03-17T07:23:08.541Z,10.23
2019-03-17T07:25:40.213Z,10.34
2019-03-17T07:28:12.351Z,10.38
2019-03-17T07:30:44.286Z,10.43
2019-03-17T07:33:15.930Z,10.47
2019-03-17T07:35:47.841Z,10.51
2019-03-17T07:38:19.787Z,10.53
2019-03-17T07:40:52.021Z,10.57
2019-03-17T07:43:26.087Z,10.71
2019-03-17T07:45:58.139Z,10.79
2019-03-17T07:48:29.843Z,10.92
2019-03-17T07:51:01.799Z,11.09
2019-03-17T07:53:33.974Z,11.17
2019-03-17T07:56:06.106Z,11.31
2019-03-17T07:58:39.172Z,11.36
2019-03-17T08:01:11.083Z,11.36
2019-03-17T08:03:44.953Z,11.46
2019-03-17T08:06:16.946Z,11.50
2019-03-17T08:08:49.094Z,11.57
2019-03-17T08:11:21.121Z,11.68
2019-03-17T08:13:53.133Z,11.80
2019-03-17T08:16:25.097Z,11.86
2019-03-17T08:18:56.771Z,11.87
2019-03-17T08:21:28.514Z,11.92
2019-03-17T08:24:00.366Z,11.95
2019-03-17T08:26:33.022Z,12.12
2019-03-17T08:29:05.982Z,12.19
2019-03-17T08:31:37.950Z,12.24
2019-03-17T08:34:09.857Z,12.19
2019-03-17T08:36:41.726Z,12.33
2019-03-17T08:39:14.018Z,12.57
2019-03-17T08:41:47.334Z,12.46
2019-03-17T08:44:19.579Z,12.50
2019-03-17T08:46:51.487Z,12.66
2019-03-17T08:49:23.251Z,12.86
2019-03-17T08:51:55.275Z,12.78
2019-03-17T08:54:26.952Z,12.79
2019-03-17T08:56:58.534Z,12.95
2019-03-17T08:59:30.992Z,13.02
2019-03-17T09:02:03.142Z,13.01
2019-03-17T09:04:34.879Z,13.23
2019-03-17T09:07:06.614Z,13.38
2019-03-17T09:09:38.348Z,13.35
2019-03-17T09:12:10.474Z,13.52
2019-03-17T09:14:42.549Z,13.59
2019-03-17T09:17:14.871Z,13.70
2019-03-17T09:19:46.910Z,13.85
2019-03-17T09:22:18.914Z,13.84
2019-03-17T09:24:50.847Z,14.00
2019-03-17T09:27:22.926Z,13.91
2019-03-17T09:29:55.279Z,14.09
2019-03-17T09:32:27.339Z,14.09
2019-03-17T09:34:59.137Z,14.17
2019-03-17T09:37:31.388Z,14.26
2019-03-17T09:40:03.075Z,14.43
2019-03-17T09:42:34.861Z,14.48
2019-03-17T09:45:07.265Z,14.61
2019-03-17T09:47:41.145Z,14.77
2019-03-17T09:50:12.876Z,14.75
2019-03-17T09:52:45.106Z,14.80
2019-03-17T09:55:17.622Z,14.71
2019-03-17T09:57:49.567Z,14.74
2019-03-17T10:00:21.656Z,14.74
2019-03-17T10:02:53.561Z,14.99
2019-03-17T10:05:26.045Z,15.15
2019-03-17T10:07:57.658Z,15.28
2019-03-17T10:10:29.684Z,15.32
2019-03-17T10:13:01.398Z,15.37
2019-03-17T10:15:33.126Z,15.44
2019-03-17T10:18:04.868Z,15.45
2019-03-17T10:20:36.649Z,15.38
2019-03-17T10:23:08.497Z,15.33
2019-03-17T10:25:42.347Z,15.55
2019-03-17T10:28:14.135Z,15.66
2019-03-17T10:30:45.916Z,15.61
2019-03-17T10:33:17.527Z,15.75
2019-03-17T10:35:50.381Z,15.79
2019-03-17T10:38:22.326Z,15.82
2019-03-17T10:40:54.208Z,16.04
2019-03-17T10:43:26.051Z,16.09
2019-03-17T10:45:58.183Z,16.10
2019-03-17T10:48:29.948Z,16.19
2019-03-17T10:51:02.336Z,16.30
2019-03-17T10:53:33.919Z,16.44
2019-03-17T10:56:07.348Z,16.41
2019-03-17T10:58:39.238Z,16.62
2019-03-17T11:01:11.471Z,16.75
2019-03-17T11:03:43.223Z,16.96
2019-03-17T11:06:15.251Z,16.99
2019-03-17T11:08:47.417Z,17.16
2019-03-17T11:11:19.477Z,17.24
2019-03-17T11:13:51.117Z,17.24
2019-03-17T11:16:22.976Z,17.33
2019-03-17T11:18:56.502Z,17.52
2019-03-17T11:21:30.807Z,17.71
2019-03-17T11:24:02.543Z,17.75
2019-03-17T11:26:34.377Z,17.63
2019-03-17T11:29:06.284Z,17.61
2019-03-17T11:31:38.133Z,17.72
2019-03-17T11:34:10.245Z,17.84
2019-03-17T11:36:42.054Z,17.92
2019-03-17T11:39:14.084Z,17.92
2019-03-17T11:41:45.937Z,18.11
2019-03-17T11:44:17.951Z,18.29
2019-03-17T11:46:51.367Z,18.26
2019-03-17T11:49:22.988Z,18.39
2019-03-17T11:51:55.148Z,18.54
2019-03-17T11:54:26.967Z,18.63
2019-03-17T11:56:59.612Z,18.32
2019-03-17T11:59:31.408Z,18.49
2019-03-17T12:02:03.766Z,18.54
2019-03-17T12:04:35.906Z,18.66
2019-03-17T12:07:07.766Z,18.66
2019-03-17T12:09:49.565Z,19.00
2019-03-17T12:12:14.527Z,19.43
2019-03-17T12:14:46.409Z,19.90
2019-03-17T12:17:18.240Z,20.37
2019-03-17T12:19:50.211Z,21.56
2019-03-17T12:22:22.110Z,21.56
2019-03-17T12:24:53.767Z,22.54
2019-03-17T12:27:27.489Z,23.00
2019-03-17T12:29:59.428Z,22.78
2019-03-17T12:32:31.256Z,22.78
2019-03-17T12:35:03.560Z,23.09
2019-03-17T12:37:36.382Z,22.79
2019-03-17T12:40:08.364Z,22.99
2019-03-17T12:42:41.929Z,23.07
2019-03-17T12:45:13.924Z,23.25
2019-03-17T12:47:47.737Z,23.72
2019-03-17T12:50:19.580Z,23.43
2019-03-17T12:52:51.374Z,23.56
2019-03-17T12:55:23.137Z,24.19
2019-03-17T12:57:55.135Z,24.20
2019-03-17T13:00:26.840Z,23.08
2019-03-17T13:02:59.674Z,22.38
2019-03-17T13:05:31.730Z,22.21
2019-03-17T13:08:03.543Z,22.21
2019-03-17T13:10:35.455Z,22.05
2019-03-17T13:13:07.680Z,21.83
2019-03-17T13:15:39.579Z,22.50
2019-03-17T13:18:11.317Z,22.72
2019-03-17T13:20:43.191Z,23.16
2019-03-17T13:23:15.389Z,23.13
2019-03-17T13:25:47.336Z,22.90
2019-03-17T13:28:19.041Z,22.68
2019-03-17T13:30:50.889Z,22.68
2019-03-17T13:33:22.596Z,22.38
2019-03-17T13:35:57.206Z,22.78
2019-03-17T13:38:28.936Z,22.78
2019-03-17T13:41:02.967Z,23.19
2019-03-17T13:43:34.940Z,23.13
2019-03-17T13:46:06.917Z,23.34
2019-03-17T13:48:38.689Z,23.13
2019-03-17T13:51:10.359Z,23.52
2019-03-17T13:53:42.180Z,23.69
2019-03-17T13:56:14.083Z,23.57
2019-03-17T13:58:48.420Z,23.02
2019-03-17T14:01:22.018Z,23.27
2019-03-17T14:03:55.048Z,23.92
2019-03-17T14:06:28.609Z,23.75
2019-03-17T14:09:00.579Z,23.50
2019-03-17T14:11:32.894Z,23.12
2019-03-17T14:14:04.816Z,23.12
2019-03-17T14:16:36.670Z,22.89
2019-03-17T14:19:08.388Z,22.79
2019-03-17T14:21:40.917Z,22.80
2019-03-17T14:24:12.940Z,22.76
2019-03-17T14:26:46.115Z,22.90
2019-03-17T14:29:18.733Z,22.63
2019-03-17T14:31:50.560Z,23.03
2019-03-17T14:34:22.399Z,22.88
2019-03-17T14:36:54.363Z,22.88
2019-03-17T14:39:26.507Z,22.51
2019-03-17T14:41:58.540Z,22.50
2019-03-17T14:44:30.315Z,22.49
2019-03-17T14:47:02.237Z,22.75
2019-03-17T14:49:34.089Z,22.05
2019-03-17T14:52:06.176Z,22.19
2019-03-17T14:54:38.198Z,22.81
2019-03-17T14:57:10.002Z,22.38
2019-03-17T14:59:41.836Z,22.44
2019-03-17T15:02:13.508Z,22.27
2019-03-17T15:04:45.357Z,22.24
2019-03-17T15:07:17.217Z,22.38
2019-03-17T15:09:49.003Z,22.36
2019-03-17T15:12:20.925Z,22.39
2019-03-17T15:14:52.570Z,22.13
2019-03-17T15:17:24.442Z,21.97
2019-03-17T15:19:56.070Z,21.71
2019-03-17T15:22:30.428Z,21.45
2019-03-17T15:25:01.844Z,21.14
2019-03-17T15:27:33.559Z,21.35
2019-03-17T15:30:06.843Z,21.42
2019-03-17T15:32:38.573Z,21.02
2019-03-17T15:35:11.938Z,21.24
2019-03-17T15:37:43.784Z,21.22
2019-03-17T15:40:15.795Z,21.29
2019-03-17T15:42:47.792Z,21.13
2019-03-17T15:45:19.904Z,21.43
2019-03-17T15:47:51.781Z,21.42
2019-03-17T15:50:23.657Z,21.21
2019-03-17T15:52:55.584Z,21.26
2019-03-17T15:55:27.368Z,21.50
2019-03-17T15:57:58.985Z,21.36
2019-03-17T16:00:30.918Z,21.13
2019-03-17T16:03:03.029Z,20.99
2019-03-17T16:05:35.217Z,21.10
2019-03-17T16:08:07.170Z,21.04
2019-03-17T16:10:39.143Z,20.99
2019-03-17T16:13:10.884Z,21.18
2019-03-17T16:15:42.615Z,21.04
2019-03-17T16:18:14.760Z,21.25
2019-03-17T16:20:46.454Z,21.10
2019-03-17T16:23:18.435Z,21.20
2019-03-17T16:25:50.733Z,21.13
2019-03-17T16:28:22.722Z,21.20
2019-03-17T16:30:54.743Z,21.03
2019-03-17T16:33:26.777Z,20.90
2019-03-17T16:35:58.905Z,20.82
2019-03-17T16:38:31.540Z,20.67
2019-03-17T16:41:03.398Z,20.54
2019-03-17T16:43:35.327Z,20.38
2019-03-17T16:46:07.122Z,20.12
2019-03-17T16:48:39.443Z,20.02
2019-03-17T16:51:11.267Z,19.94
2019-03-17T16:53:43.067Z,19.78
2019-03-17T16:56:15.026Z,19.64
2019-03-17T16:58:46.999Z,19.48
2019-03-17T17:01:19.850Z,19.23
2019-03-17T17:03:51.782Z,19.00
2019-03-17T17:06:23.780Z,18.81
2019-03-17T17:08:55.371Z,18.70
2019-03-17T17:11:27.063Z,18.57
2019-03-17T17:13:59.424Z,18.48
2019-03-17T17:16:31.285Z,18.32
2019-03-17T17:19:03.312Z,18.21
2019-03-17T17:21:36.111Z,18.12
2019-03-17T17:24:09.885Z,17.98
2019-03-17T17:26:42.073Z,17.91
2019-03-17T17:29:14.153Z,17.75
2019-03-17T17:31:45.891Z,17.68
2019-03-17T17:34:18.204Z,17.63
2019-03-17T17:36:50.033Z,17.48
2019-03-17T17:39:21.945Z,17.43
2019-03-17T17:41:54.005Z,17.28
2019-03-17T17:44:25.666Z,17.12
2019-03-17T17:46:58.328Z,16.99
2019-03-17T17:49:30.351Z,16.88
2019-03-17T17:52:03.622Z,16.78
2019-03-17T17:54:35.626Z,16.74
2019-03-17T17:57:07.737Z,16.73
2019-03-17T17:59:39.450Z,16.75
2019-03-17T18:02:11.404Z,16.75
2019-03-17T18:04:43.322Z,16.70
2019-03-17T18:07:15.389Z,16.65
2019-03-17T18:09:47.169Z,16.62
2019-03-17T18:12:21.172Z,16.51
2019-03-17T18:14:52.176Z,16.41
2019-03-17T18:17:24.023Z,16.36
2019-03-17T18:19:56.850Z,16.28
2019-03-17T18:22:28.454Z,16.22
2019-03-17T18:25:00.313Z,16.16
2019-03-17T18:27:32.002Z,16.07
2019-03-17T18:30:03.870Z,16.01
2019-03-17T18:32:38.399Z,15.94
2019-03-17T18:35:10.373Z,15.85
2019-03-17T18:37:42.647Z,15.82
2019-03-17T18:40:15.286Z,15.83
2019-03-17T18:42:47.101Z,15.87
2019-03-17T18:45:19.598Z,15.85
2019-03-17T18:47:52.149Z,15.89
2019-03-17T18:50:25.461Z,15.87
2019-03-17T18:52:57.390Z,15.86
2019-03-17T18:55:29.375Z,15.84
2019-03-17T18:58:01.418Z,15.80
2019-03-17T19:00:33.572Z,15.81
2019-03-17T19:03:06.139Z,15.84
2019-03-17T19:05:38.998Z,15.85
2019-03-17T19:08:10.841Z,15.84
2019-03-17T19:10:43.019Z,15.83
2019-03-17T19:13:16.297Z,15.84
2019-03-17T19:15:48.134Z,15.86
2019-03-17T19:18:19.883Z,15.82
2019-03-17T19:20:52.868Z,15.82
2019-03-17T19:23:26.872Z,15.81
2019-03-17T19:26:00.407Z,15.78
2019-03-17T19:28:32.214Z,15.71
2019-03-17T19:31:06.397Z,15.69
2019-03-17T19:33:38.402Z,15.65
2019-03-17T19:36:10.206Z,15.60
2019-03-17T19:38:41.926Z,15.53
2019-03-17T19:41:13.908Z,15.41
2019-03-17T19:43:45.649Z,15.33
2019-03-17T19:46:18.586Z,15.13
2019-03-17T19:48:50.751Z,14.92
2019-03-17T19:51:22.469Z,14.75
2019-03-17T19:53:54.162Z,14.67
2019-03-17T19:56:25.859Z,14.55
2019-03-17T19:58:57.538Z,14.47
2019-03-17T20:01:29.939Z,14.40
2019-03-17T20:04:02.124Z,14.33
2019-03-17T20:06:34.049Z,14.27
2019-03-17T20:09:08.141Z,14.26
2019-03-17T20:11:39.805Z,14.21
2019-03-17T20:14:11.704Z,14.20
2019-03-17T20:16:43.387Z,14.17
2019-03-17T20:19:15.044Z,14.11
2019-03-17T20:21:46.880Z,14.08
2019-03-17T20:24:18.779Z,14.05
2019-03-17T20:26:50.434Z,14.01
2019-03-17T20:29:22.345Z,13.97
2019-03-17T20:31:53.950Z,13.89
2019-03-17T20:34:26.765Z,13.83
2019-03-17T20:36:58.366Z,13.78
2019-03-17T20:39:30.193Z,13.73
2019-03-17T20:42:02.090Z,13.72
2019-03-17T20:44:34.296Z,13.68
2019-03-17T20:47:06.339Z,13.63
2019-03-17T20:49:39.417Z,13.63
2019-03-17T20:52:11.319Z,13.01
2019-03-17T20:54:43.195Z,13.01
2019-03-17T20:57:15.100Z,12.89
2019-03-17T20:59:46.966Z,12.90
2019-03-17T21:02:20.289Z,12.91
2019-03-17T21:04:52.127Z,12.83
2019-03-17T21:07:24.309Z,12.85
2019-03-17T21:09:56.141Z,12.85
2019-03-17T21:12:27.842Z,12.79
2019-03-17T21:14:59.540Z,12.76
2019-03-17T21:17:31.343Z,12.80
2019-03-17T21:20:03.329Z,12.82
2019-03-17T21:22:35.251Z,12.91
2019-03-17T21:25:07.150Z,12.99
2019-03-17T21:27:38.977Z,13.01
2019-03-17T21:30:16.298Z,13.00
2019-03-17T21:32:48.520Z,12.97
2019-03-17T21:35:20.362Z,13.02
2019-03-17T21:37:52.085Z,12.98
2019-03-17T21:40:23.844Z,12.95
2019-03-17T21:42:55.695Z,12.93
2019-03-17T21:45:27.756Z,12.89
2019-03-17T21:47:59.513Z,12.83
2019-03-17T21:50:31.551Z,12.75
2019-03-17T21:53:03.510Z,12.69
2019-03-17T21:55:35.524Z,12.65
2019-03-17T21:58:08.471Z,12.60
2019-03-17T22:00:42.058Z,12.56
2019-03-17T22:03:19.615Z,12.49
2019-03-17T22:05:51.513Z,12.49
2019-03-17T22:08:23.249Z,12.45
2019-03-17T22:10:55.707Z,12.40
2019-03-17T22:13:27.814Z,12.39
2019-03-17T22:15:59.544Z,12.34
2019-03-17T22:18:33.182Z,12.36
2019-03-17T22:21:06.133Z,12.33
2019-03-17T22:23:38.177Z,12.31
2019-03-17T22:26:10.279Z,12.31
2019-03-17T22:28:42.294Z,12.33
2019-03-17T22:31:14.456Z,12.34
2019-03-17T22:33:46.724Z,12.34
2019-03-17T22:36:18.873Z,12.36
2019-03-17T22:38:51.126Z,12.36
2019-03-17T22:41:22.780Z,12.37
2019-03-17T22:43:54.669Z,12.39
2019-03-17T22:46:28.929Z,12.43
2019-03-17T22:49:00.775Z,12.47
2019-03-17T22:51:32.567Z,12.54
2019-03-17T22:54:04.618Z,12.57
2019-03-17T22:56:36.362Z,12.65
2019-03-17T22:59:08.275Z,12.67
2019-03-17T23:01:40.509Z,12.68
2019-03-17T23:04:13.132Z,12.68
2019-03-17T23:06:45.471Z,12.67
2019-03-17T23:09:18.239Z,12.65
2019-03-17T23:11:50.803Z,12.63
2019-03-17T23:14:35.845Z,12.59
2019-03-17T23:16:58.098Z,12.59
2019-03-17T23:19:32.318Z,12.57
2019-03-17T23:22:04.952Z,12.56
2019-03-17T23:24:37.411Z,12.51
2019-03-17T23:27:09.837Z,12.36
2019-03-17T23:29:42.417Z,10.66
2019-03-17T23:32:14.755Z,10.04
2019-03-17T23:34:47.391Z,10.12
2019-03-17T23:37:20.144Z,9.87
2019-03-17T23:39:52.490Z,9.69
2019-03-17T23:42:24.733Z,9.56
2019-03-17T23:44:57.151Z,9.35
2019-03-17T23:47:29.288Z,9.23
2019-03-17T23:50:01.604Z,9.00
2019-03-17T23:52:34.055Z,8.85
2019-03-17T23:55:07.266Z,8.67
2019-03-17T23:57:39.968Z,8.51
